Time;durP1;ratioP1;P1;durP2;ratioP2;P2;SDS_P1;SDS_P2;PMS_P1;PMS_P2;Temp;Humidity;BMP_temperature;BMP_pressure;BME280_temperature;BME280_humidity;BME280_pressure;Samples;Min_cycle;Max_cycle;Signal;HPM_P1;HPM_P2
2021/12/17 00:05:06;;;;;;;16.93;13.60;;;9.80;99.90;;;;;;5066086;28;20679;-56
2021/12/17 00:07:35;;;;;;;17.60;13.40;;;9.80;99.90;;;;;;5068828;28;20332;-55
2021/12/17 00:10:12;;;;;;;17.67;13.00;;;9.80;99.90;;;;;;5072317;28;20257;-55
2021/12/17 00:12:40;;;;;;;17.57;14.23;;;9.90;99.90;;;;;;5076245;28;20311;-53
2021/12/17 00:15:08;;;;;;;21.40;13.90;;;9.60;99.90;;;;;;5058433;28;20230;-57
2021/12/17 00:17:39;;;;;;;19.00;14.63;;;9.50;99.90;;;;;;5073158;28;20779;-56
2021/12/17 00:48:24;;;;;;;21.63;15.03;;;9.70;99.90;;;;;;5050086;28;20235;-55
2021/12/17 00:53:23;;;;;;;22.53;15.43;;;9.80;99.90;;;;;;5076551;28;22278;-55
2021/12/17 00:55:50;;;;;;;18.93;14.33;;;9.80;99.90;;;;;;5076545;28;20237;-54
2021/12/17 00:58:17;;;;;;;19.87;14.73;;;9.80;99.90;;;;;;5073519;28;20289;-54
2021/12/17 01:00:44;;;;;;;18.83;15.20;;;9.80;99.90;;;;;;5081080;28;20654;-54
2021/12/17 01:03:12;;;;;;;20.00;13.67;;;9.80;99.90;;;;;;5079017;28;20200;-56
2021/12/17 01:05:40;;;;;;;22.17;14.37;;;9.90;99.90;;;;;;5078405;28;20204;-54
2021/12/17 01:08:07;;;;;;;19.20;14.53;;;9.80;99.90;;;;;;5075520;28;20335;-55
2021/12/17 01:10:42;;;;;;;20.40;14.90;;;9.80;99.90;;;;;;5075049;28;20677;-54
2021/12/17 01:13:10;;;;;;;17.93;14.37;;;9.80;99.90;;;;;;5066675;28;20212;-54
2021/12/17 01:15:39;;;;;;;19.57;14.03;;;9.80;99.90;;;;;;5057195;28;20204;-55
2021/12/17 01:18:13;;;;;;;20.90;15.63;;;9.80;99.90;;;;;;5073621;28;20198;-55
2021/12/17 01:36:39;;;;;;;20.47;15.20;;;9.80;99.90;;;;;;5072566;28;20192;-55
2021/12/17 01:42:13;;;;;;;19.43;14.00;;;9.80;99.90;;;;;;5013863;28;20230;-57
2021/12/17 01:44:42;;;;;;;19.20;15.10;;;9.80;99.90;;;;;;5010328;28;20201;-56
2021/12/17 01:47:11;;;;;;;17.60;13.83;;;9.90;99.90;;;;;;5040689;28;20566;-55
2021/12/17 02:00:27;;;;;;;22.00;14.73;;;10.00;99.90;;;;;;5076191;28;20653;-54
2021/12/17 02:02:58;;;;;;;20.50;15.93;;;10.00;99.90;;;;;;5074012;28;20208;-56
2021/12/17 02:05:25;;;;;;;20.13;14.63;;;10.00;99.90;;;;;;5077661;28;20323;-55
2021/12/17 02:07:55;;;;;;;21.30;14.97;;;10.00;99.90;;;;;;5072434;28;20274;-54
2021/12/17 02:32:10;;;;;;;13.80;10.60;;;9.40;99.90;;;;;;5076765;28;20272;-54
2021/12/17 02:37:11;;;;;;;12.67;10.70;;;9.20;99.90;;;;;;5070468;28;20294;-54
2021/12/17 02:48:01;;;;;;;12.43;10.23;;;9.10;99.90;;;;;;5073462;28;20226;-54
2021/12/17 02:50:29;;;;;;;13.37;10.10;;;9.20;99.90;;;;;;5070849;28;20208;-56
2021/12/17 02:52:59;;;;;;;17.17;11.23;;;9.30;99.90;;;;;;5072596;28;20312;-55
2021/12/17 02:55:27;;;;;;;13.17;10.80;;;9.10;99.90;;;;;;5074296;28;20199;-54
2021/12/17 02:57:55;;;;;;;14.40;11.33;;;9.00;99.90;;;;;;5073318;28;20320;-54
2021/12/17 03:00:22;;;;;;;13.17;10.60;;;9.00;99.90;;;;;;5058960;28;20299;-55
2021/12/17 03:02:50;;;;;;;12.53;10.77;;;8.90;99.90;;;;;;5060776;28;20235;-56
2021/12/17 03:05:17;;;;;;;13.83;11.03;;;9.00;99.90;;;;;;5072995;28;21107;-56
2021/12/17 03:07:47;;;;;;;13.40;10.77;;;9.00;99.90;;;;;;5074290;28;20237;-54
2021/12/17 03:10:15;;;;;;;13.73;11.47;;;9.00;99.90;;;;;;5073253;28;20273;-55
2021/12/17 03:12:50;;;;;;;14.43;11.57;;;9.00;99.90;;;;;;5077158;28;20225;-54
2021/12/17 03:15:25;;;;;;;13.73;11.37;;;9.00;99.90;;;;;;5073630;28;20223;-56
2021/12/17 03:25:59;;;;;;;13.47;10.77;;;8.80;99.90;;;;;;5071195;28;20649;-56
2021/12/17 03:28:26;;;;;;;15.63;12.43;;;8.90;99.90;;;;;;5075227;28;20202;-54
2021/12/17 03:30:54;;;;;;;13.90;11.60;;;8.70;99.90;;;;;;5070747;28;20301;-54
2021/12/17 03:33:21;;;;;;;15.00;11.40;;;8.60;99.90;;;;;;5075180;28;20260;-56
2021/12/17 03:35:50;;;;;;;15.80;11.70;;;8.60;99.90;;;;;;5073944;28;20237;-54
2021/12/17 03:38:18;;;;;;;14.10;11.30;;;8.70;99.90;;;;;;5073616;28;20291;-53
2021/12/17 03:40:46;;;;;;;13.77;11.67;;;8.70;99.90;;;;;;5075674;28;20288;-54
2021/12/17 03:43:21;;;;;;;13.20;11.07;;;8.80;99.90;;;;;;5072547;28;20243;-53
2021/12/17 03:45:48;;;;;;;14.57;11.33;;;8.80;99.90;;;;;;5074928;28;20205;-55
2021/12/17 03:48:15;;;;;;;15.47;11.60;;;8.90;99.90;;;;;;5075781;28;20230;-56
2021/12/17 03:50:42;;;;;;;15.97;11.80;;;8.60;99.90;;;;;;5070382;28;20217;-54
2021/12/17 03:53:09;;;;;;;14.40;11.00;;;8.70;99.90;;;;;;5076198;28;20840;-54
2021/12/17 03:55:36;;;;;;;15.00;12.10;;;8.80;99.90;;;;;;5075299;28;20549;-53
2021/12/17 03:58:03;;;;;;;16.43;12.70;;;8.90;99.90;;;;;;5074483;28;20246;-53
2021/12/17 04:00:30;;;;;;;14.50;12.00;;;9.00;99.90;;;;;;5074744;28;20201;-55
2021/12/17 04:02:58;;;;;;;15.80;11.83;;;8.90;99.90;;;;;;5076740;28;20196;-53
2021/12/17 04:05:25;;;;;;;17.50;12.33;;;8.90;99.90;;;;;;5072685;28;20276;-56
2021/12/17 04:07:52;;;;;;;14.73;11.93;;;9.00;99.90;;;;;;5078852;28;21226;-54
2021/12/17 04:10:19;;;;;;;13.00;11.47;;;9.00;99.90;;;;;;5072837;28;20207;-53
2021/12/17 04:13:01;;;;;;;15.77;12.13;;;9.00;99.90;;;;;;5073723;28;20302;-53
2021/12/17 04:15:36;;;;;;;16.67;12.17;;;9.00;99.90;;;;;;5058835;28;20199;-54
2021/12/17 04:18:09;;;;;;;15.00;11.63;;;9.00;99.90;;;;;;5074095;28;20222;-53
2021/12/17 04:20:37;;;;;;;17.03;12.03;;;9.10;99.90;;;;;;5072128;28;20258;-55
2021/12/17 04:23:04;;;;;;;15.27;11.93;;;9.10;99.90;;;;;;5070644;28;20229;-53
2021/12/17 04:25:31;;;;;;;16.10;12.13;;;9.10;99.90;;;;;;5078728;28;20258;-54
2021/12/17 04:27:58;;;;;;;17.73;13.10;;;9.00;99.90;;;;;;5087807;28;20267;-53
2021/12/17 04:30:25;;;;;;;13.97;11.43;;;9.00;99.90;;;;;;5075171;28;20611;-53
2021/12/17 04:32:53;;;;;;;16.87;12.67;;;9.00;99.90;;;;;;5058015;28;20234;-55
2021/12/17 04:35:21;;;;;;;14.67;12.87;;;9.10;99.90;;;;;;5075498;28;20252;-54
2021/12/17 04:37:48;;;;;;;15.27;12.17;;;9.10;99.90;;;;;;5073981;28;20237;-53
2021/12/17 04:40:16;;;;;;;16.73;12.27;;;9.00;99.90;;;;;;5079410;28;20219;-58
2021/12/17 04:45:23;;;;;;;19.73;14.03;;;9.20;99.90;;;;;;5080420;28;20312;-54
2021/12/17 04:58:53;;;;;;;20.67;13.87;;;9.00;99.90;;;;;;5073445;28;20235;-54
2021/12/17 05:01:20;;;;;;;19.23;13.53;;;9.00;99.90;;;;;;5072477;28;20196;-54
2021/12/17 05:03:47;;;;;;;17.43;13.13;;;9.00;99.90;;;;;;5074119;28;20287;-52
2021/12/17 05:06:14;;;;;;;20.07;14.40;;;9.00;99.90;;;;;;5075111;28;20196;-54
2021/12/17 05:08:41;;;;;;;17.73;13.13;;;9.00;99.90;;;;;;5069260;28;20235;-55
2021/12/17 05:11:23;;;;;;;19.73;13.17;;;9.10;99.90;;;;;;5064978;28;20274;-53
2021/12/17 05:20:13;;;;;;;19.57;14.57;;;9.10;99.90;;;;;;5067998;28;20801;-54
2021/12/17 05:22:12;;;;;;;22.13;14.87;;;9.20;99.90;;;;;;5058685;28;20825;-54
2021/12/17 05:24:39;;;;;;;21.03;13.73;;;9.20;99.90;;;;;;5055261;28;20251;-56
2021/12/17 05:27:06;;;;;;;20.53;15.47;;;9.10;99.90;;;;;;5068199;28;20323;-55
2021/12/17 05:29:33;;;;;;;21.97;13.93;;;9.10;99.90;;;;;;5074302;28;20280;-54
2021/12/17 05:31:59;;;;;;;24.07;15.90;;;9.10;99.90;;;;;;5073149;28;20255;-53
2021/12/17 05:34:26;;;;;;;21.30;14.50;;;9.10;99.90;;;;;;5073518;28;20307;-54
2021/12/17 05:36:53;;;;;;;18.53;14.70;;;9.10;99.90;;;;;;5061214;28;20219;-53
2021/12/17 05:39:20;;;;;;;19.53;14.60;;;9.10;99.90;;;;;;5074428;28;20230;-53
2021/12/17 05:41:47;;;;;;;21.53;15.63;;;9.20;99.90;;;;;;5064860;28;20241;-53
2021/12/17 05:44:15;;;;;;;22.87;14.40;;;9.20;99.90;;;;;;5075373;28;20209;-55
2021/12/17 05:46:50;;;;;;;19.43;14.23;;;9.20;99.90;;;;;;5077853;28;20468;-53
2021/12/17 05:49:21;;;;;;;22.33;14.43;;;9.20;99.90;;;;;;5069876;28;20195;-53
2021/12/17 05:51:48;;;;;;;22.00;14.73;;;9.10;99.90;;;;;;5071431;28;20214;-54
2021/12/17 05:54:16;;;;;;;23.70;14.83;;;9.20;99.90;;;;;;5064654;28;20258;-56
2021/12/17 05:56:44;;;;;;;25.03;15.93;;;9.20;99.90;;;;;;5067566;28;20530;-54
2021/12/17 05:59:11;;;;;;;21.33;15.67;;;9.30;99.90;;;;;;5065691;28;20326;-55
2021/12/17 06:01:38;;;;;;;21.03;14.93;;;9.30;99.90;;;;;;5078366;28;20231;-54
2021/12/17 06:04:05;;;;;;;19.60;14.03;;;9.30;99.90;;;;;;5072896;28;20652;-54
2021/12/17 06:06:35;;;;;;;22.47;14.77;;;9.20;99.90;;;;;;5067026;28;20201;-53
2021/12/17 06:09:06;;;;;;;24.27;14.73;;;9.20;99.90;;;;;;5070785;28;20282;-53
2021/12/17 06:11:34;;;;;;;24.53;14.73;;;9.10;99.90;;;;;;5071228;28;20235;-54
2021/12/17 06:14:02;;;;;;;24.70;15.07;;;9.10;99.90;;;;;;5071143;28;20811;-54
2021/12/17 06:16:30;;;;;;;19.97;14.37;;;9.10;99.90;;;;;;5069857;28;20229;-54
2021/12/17 06:18:56;;;;;;;27.67;15.07;;;9.00;99.90;;;;;;5073930;28;20900;-52
2021/12/17 06:21:24;;;;;;;28.47;14.30;;;9.20;99.90;;;;;;5066074;28;20200;-55
2021/12/17 06:23:51;;;;;;;24.13;13.93;;;9.10;99.90;;;;;;5074826;28;20287;-54
2021/12/17 06:26:18;;;;;;;27.83;14.67;;;9.10;99.90;;;;;;5073391;28;20197;-54
2021/12/17 06:28:49;;;;;;;22.50;14.37;;;9.00;99.90;;;;;;5074076;28;20198;-56
2021/12/17 06:31:19;;;;;;;21.77;13.77;;;9.10;99.90;;;;;;5071790;28;20211;-55
2021/12/17 06:33:47;;;;;;;27.17;15.10;;;9.00;99.90;;;;;;5071226;28;20243;-52
2021/12/17 06:36:14;;;;;;;26.47;14.93;;;9.10;99.90;;;;;;5071019;28;20191;-54
2021/12/17 06:38:40;;;;;;;24.37;14.27;;;9.00;99.90;;;;;;5071961;28;20673;-54
2021/12/17 06:41:07;;;;;;;22.80;13.50;;;9.10;99.90;;;;;;5072734;28;21115;-54
2021/12/17 06:43:40;;;;;;;24.40;14.57;;;9.10;99.90;;;;;;5045144;28;20296;-51
2021/12/17 06:46:22;;;;;;;22.87;13.30;;;9.20;99.90;;;;;;5067872;28;20295;-52
2021/12/17 06:48:56;;;;;;;27.33;15.33;;;9.10;99.90;;;;;;5064878;28;20696;-54
2021/12/17 07:10:40;;;;;;;25.20;15.13;;;9.20;99.90;;;;;;5071538;28;20421;-54
2021/12/17 07:34:42;;;;;;;26.20;14.33;;;9.20;99.90;;;;;;5064229;28;20271;-54
2021/12/17 07:39:36;;;;;;;25.53;14.83;;;9.10;99.90;;;;;;5067688;28;20247;-53
2021/12/17 07:42:03;;;;;;;23.70;13.70;;;9.20;99.90;;;;;;5065581;28;20245;-56
2021/12/17 07:44:30;;;;;;;27.00;15.10;;;9.30;99.90;;;;;;5062109;28;20315;-54
2021/12/17 07:46:57;;;;;;;26.63;13.63;;;9.40;99.90;;;;;;5068751;28;20223;-52
2021/12/17 07:49:24;;;;;;;25.93;14.03;;;9.40;99.90;;;;;;5070918;28;20936;-52
2021/12/17 07:51:51;;;;;;;25.63;13.93;;;9.40;99.90;;;;;;5067032;28;20909;-53
2021/12/17 07:54:18;;;;;;;27.47;14.00;;;9.40;99.90;;;;;;5072838;28;21066;-53
2021/12/17 07:56:45;;;;;;;23.50;13.53;;;9.40;99.90;;;;;;5072140;28;20328;-54
2021/12/17 07:59:13;;;;;;;28.10;14.60;;;9.40;99.90;;;;;;5073564;28;20224;-54
2021/12/17 08:01:40;;;;;;;23.57;13.40;;;9.50;99.90;;;;;;5069387;28;20301;-53
2021/12/17 08:04:08;;;;;;;23.27;12.30;;;9.50;99.90;;;;;;5066070;28;20613;-55
2021/12/17 08:06:37;;;;;;;26.37;15.10;;;9.50;99.90;;;;;;5072652;28;20204;-52
2021/12/17 08:09:05;;;;;;;25.17;13.80;;;9.50;99.90;;;;;;5069703;28;20253;-53
2021/12/17 08:11:37;;;;;;;25.73;13.77;;;9.50;99.90;;;;;;5061265;28;20204;-56
2021/12/17 08:14:10;;;;;;;24.77;13.67;;;9.50;99.90;;;;;;5067601;28;20307;-55
2021/12/17 08:16:45;;;;;;;23.83;13.67;;;9.40;99.90;;;;;;5068015;28;20350;-55
2021/12/17 08:24:53;;;;;;;27.37;14.07;;;9.40;99.90;;;;;;5073146;28;20196;-54
2021/12/17 08:27:43;;;;;;;28.03;14.07;;;9.30;99.90;;;;;;5067750;28;20774;-53
2021/12/17 08:32:43;;;;;;;29.00;13.53;;;9.20;99.90;;;;;;5041567;28;20610;-52
2021/12/17 08:35:11;;;;;;;26.10;14.10;;;9.20;99.90;;;;;;5065222;28;20220;-53
2021/12/17 08:37:38;;;;;;;27.43;14.57;;;9.20;99.90;;;;;;5069885;28;20267;-54
2021/12/17 08:40:07;;;;;;;29.27;14.23;;;9.30;99.90;;;;;;5071009;28;20301;-56
2021/12/17 08:42:35;;;;;;;29.03;14.17;;;9.40;99.90;;;;;;5070486;28;20611;-53
2021/12/17 08:45:04;;;;;;;31.97;17.07;;;9.40;99.90;;;;;;5065705;28;20285;-55
2021/12/17 08:47:31;;;;;;;28.57;14.87;;;9.30;99.90;;;;;;5063381;28;20666;-54
2021/12/17 08:50:04;;;;;;;28.83;14.00;;;9.40;99.90;;;;;;5066332;28;20308;-55
2021/12/17 08:52:31;;;;;;;28.87;13.70;;;9.40;99.90;;;;;;5062867;28;20286;-54
2021/12/17 08:54:57;;;;;;;25.83;14.37;;;9.50;99.90;;;;;;5070880;28;20300;-54
2021/12/17 08:57:24;;;;;;;28.67;14.93;;;9.50;99.90;;;;;;5067258;28;20223;-53
2021/12/17 08:59:51;;;;;;;27.70;12.70;;;9.40;99.90;;;;;;5067049;28;20241;-53
2021/12/17 09:02:18;;;;;;;30.43;13.70;;;9.40;99.90;;;;;;5063253;28;20738;-53
2021/12/17 09:04:45;;;;;;;30.40;15.23;;;9.40;99.90;;;;;;5054651;28;20203;-55
2021/12/17 09:07:11;;;;;;;27.73;12.70;;;9.30;99.90;;;;;;5076144;28;20237;-55
2021/12/17 09:09:39;;;;;;;27.37;13.20;;;9.20;99.90;;;;;;5067705;28;20279;-55
2021/12/17 09:12:07;;;;;;;28.93;12.80;;;9.30;99.90;;;;;;5063124;28;20286;-54
2021/12/17 09:14:35;;;;;;;26.30;13.20;;;9.30;99.90;;;;;;5068418;28;20642;-54
2021/12/17 09:17:02;;;;;;;27.00;12.10;;;9.30;99.90;;;;;;5054476;28;20196;-53
2021/12/17 09:19:29;;;;;;;27.57;13.53;;;9.30;99.90;;;;;;5047026;28;20296;-54
2021/12/17 09:21:56;;;;;;;25.93;12.90;;;9.20;99.90;;;;;;5056085;28;20485;-53
2021/12/17 09:24:23;;;;;;;24.07;11.50;;;9.10;99.90;;;;;;5071674;28;20894;-55
2021/12/17 09:26:50;;;;;;;23.43;11.20;;;9.10;99.90;;;;;;5071156;28;20732;-54
2021/12/17 09:29:17;;;;;;;22.77;12.23;;;9.10;99.90;;;;;;5066778;28;20365;-54
2021/12/17 09:31:44;;;;;;;25.70;12.37;;;9.20;99.90;;;;;;5070282;28;20238;-54
2021/12/17 09:34:11;;;;;;;27.07;12.70;;;9.20;99.90;;;;;;5070032;28;20221;-56
2021/12/17 09:36:37;;;;;;;26.93;13.33;;;9.20;99.90;;;;;;5072233;28;20202;-56
2021/12/17 09:39:04;;;;;;;28.57;12.07;;;9.20;99.90;;;;;;5072824;28;20229;-55
2021/12/17 09:41:31;;;;;;;23.07;11.73;;;9.10;99.90;;;;;;5072919;28;20747;-54
2021/12/17 09:43:58;;;;;;;27.57;12.03;;;9.10;99.90;;;;;;5070053;28;20239;-53
2021/12/17 09:46:26;;;;;;;20.77;10.53;;;9.10;99.90;;;;;;5051893;28;20213;-52
2021/12/17 09:48:54;;;;;;;28.10;12.40;;;9.20;99.90;;;;;;5070411;28;20209;-54
2021/12/17 09:51:22;;;;;;;27.13;12.47;;;9.30;99.90;;;;;;5067642;28;20212;-53
2021/12/17 09:53:49;;;;;;;25.17;11.60;;;9.20;99.90;;;;;;5068124;28;20216;-55
2021/12/17 09:56:16;;;;;;;21.00;10.53;;;9.20;99.90;;;;;;5062317;28;20285;-54
2021/12/17 09:58:43;;;;;;;74.33;14.33;;;9.30;99.90;;;;;;5057657;28;20271;-54
2021/12/17 10:01:09;;;;;;;348.13;32.47;;;9.20;99.90;;;;;;5070025;28;20199;-54
2021/12/17 10:03:36;;;;;;;35.90;12.47;;;9.40;99.90;;;;;;5070346;28;20210;-54
2021/12/17 10:06:03;;;;;;;27.40;12.17;;;9.40;99.90;;;;;;5075613;28;20633;-53
2021/12/17 10:08:30;;;;;;;23.93;11.90;;;9.40;99.90;;;;;;5048642;28;20216;-55
2021/12/17 10:11:03;;;;;;;119.93;18.00;;;9.40;99.90;;;;;;5072655;28;20311;-53
2021/12/17 10:13:32;;;;;;;87.83;16.57;;;9.40;99.90;;;;;;5068117;28;20274;-53
2021/12/17 10:16:12;;;;;;;57.53;12.60;;;9.50;99.90;;;;;;5069454;28;20193;-54
2021/12/17 10:18:41;;;;;;;51.20;11.87;;;9.30;99.90;;;;;;5072565;28;20204;-55
2021/12/17 10:21:17;;;;;;;28.77;10.53;;;9.40;99.90;;;;;;5077028;28;20303;-54
2021/12/17 10:23:45;;;;;;;88.77;15.13;;;9.40;99.90;;;;;;5057108;28;20211;-54
2021/12/17 10:26:17;;;;;;;20.20;9.63;;;9.50;99.90;;;;;;5072096;28;20588;-53
2021/12/17 10:29:00;;;;;;;21.27;9.80;;;9.40;99.90;;;;;;5067783;28;20631;-54
2021/12/17 10:31:29;;;;;;;21.83;9.70;;;9.40;99.90;;;;;;5067041;28;20209;-55
2021/12/17 10:34:01;;;;;;;19.63;10.03;;;9.40;99.90;;;;;;5078938;28;20265;-55
2021/12/17 10:36:36;;;;;;;24.40;10.17;;;9.40;99.90;;;;;;5076214;28;20625;-54
2021/12/17 10:39:31;;;;;;;22.63;10.63;;;9.30;99.90;;;;;;5075479;28;20233;-59
2021/12/17 10:41:59;;;;;;;22.90;9.63;;;9.40;99.90;;;;;;5075078;28;20218;-53
2021/12/17 10:44:27;;;;;;;21.30;10.50;;;9.30;99.90;;;;;;5067784;28;20770;-54
2021/12/17 10:47:08;;;;;;;126.97;17.80;;;9.40;99.90;;;;;;5064466;28;20197;-54
2021/12/17 10:49:35;;;;;;;23.83;9.40;;;9.40;99.90;;;;;;5069817;28;20225;-54
2021/12/17 10:52:13;;;;;;;31.63;11.70;;;9.40;99.90;;;;;;5072437;28;20202;-54
2021/12/17 10:54:40;;;;;;;38.83;12.03;;;9.40;99.90;;;;;;5071405;28;20764;-53
2021/12/17 10:57:08;;;;;;;21.87;10.27;;;9.50;99.90;;;;;;5067468;28;20346;-54
2021/12/17 10:59:36;;;;;;;26.07;10.87;;;9.50;99.90;;;;;;5075351;28;20249;-52
2021/12/17 11:02:11;;;;;;;20.97;10.10;;;9.60;99.90;;;;;;5077524;28;20229;-54
2021/12/17 11:04:41;;;;;;;19.97;9.20;;;9.60;99.90;;;;;;5070862;28;20194;-53
2021/12/17 11:07:14;;;;;;;17.73;9.33;;;9.50;99.90;;;;;;5068120;28;20788;-54
2021/12/17 11:09:52;;;;;;;21.87;9.70;;;9.50;99.90;;;;;;5076892;28;21147;-53
2021/12/17 11:12:34;;;;;;;24.73;7.80;;;9.60;99.90;;;;;;5073671;28;20199;-52
2021/12/17 11:15:11;;;;;;;16.00;8.07;;;9.60;99.90;;;;;;5069267;28;20684;-53
2021/12/17 11:17:40;;;;;;;17.33;8.07;;;9.70;99.90;;;;;;5070209;28;20582;-53
2021/12/17 11:20:09;;;;;;;19.20;9.60;;;9.70;99.90;;;;;;5069511;28;20275;-58
2021/12/17 11:22:41;;;;;;;18.17;8.13;;;9.80;99.90;;;;;;5066436;28;20318;-53
2021/12/17 11:25:09;;;;;;;17.37;8.27;;;9.80;99.90;;;;;;5068729;28;20360;-53
2021/12/17 11:27:36;;;;;;;21.97;7.57;;;9.90;99.90;;;;;;5072103;28;20778;-53
2021/12/17 11:30:06;;;;;;;16.40;7.07;;;9.90;99.90;;;;;;5072327;28;20306;-52
2021/12/17 11:32:35;;;;;;;13.77;6.97;;;9.80;99.90;;;;;;5051052;28;20332;-53
2021/12/17 11:35:04;;;;;;;14.53;7.30;;;9.70;99.90;;;;;;5056346;28;20223;-53
2021/12/17 11:37:31;;;;;;;15.53;6.43;;;9.80;99.90;;;;;;5065412;28;20230;-54
2021/12/17 11:40:03;;;;;;;13.07;6.77;;;9.90;99.90;;;;;;5079603;28;20261;-54
2021/12/17 11:42:46;;;;;;;13.30;6.83;;;9.90;99.90;;;;;;5078169;28;20302;-53
2021/12/17 11:45:26;;;;;;;15.47;7.63;;;9.80;99.90;;;;;;5071396;28;20407;-52
2021/12/17 11:47:57;;;;;;;14.73;7.67;;;9.90;99.90;;;;;;5075028;28;20745;-53
2021/12/17 11:50:24;;;;;;;16.90;7.50;;;9.90;99.90;;;;;;5071264;28;20225;-54
2021/12/17 11:52:53;;;;;;;14.20;6.93;;;9.80;99.90;;;;;;5077670;28;20723;-53
2021/12/17 11:55:20;;;;;;;16.00;6.53;;;9.70;99.90;;;;;;5081026;28;20330;-52
2021/12/17 11:57:50;;;;;;;15.93;7.67;;;9.80;99.90;;;;;;5078821;28;21989;-53
2021/12/17 12:00:24;;;;;;;14.10;6.27;;;9.90;99.90;;;;;;5066341;28;20219;-53
2021/12/17 12:02:56;;;;;;;10.60;5.00;;;9.70;99.90;;;;;;5077448;28;20217;-53
2021/12/17 12:05:38;;;;;;;12.23;5.77;;;9.90;99.90;;;;;;5053508;28;20205;-55
2021/12/17 12:08:49;;;;;;;9.67;5.10;;;9.90;99.90;;;;;;5078702;28;20289;-53
2021/12/17 12:11:22;;;;;;;10.10;5.27;;;9.80;99.90;;;;;;5082352;28;20294;-53
2021/12/17 12:13:51;;;;;;;9.20;4.60;;;9.70;99.90;;;;;;5078937;28;20201;-53
2021/12/17 12:16:25;;;;;;;11.60;5.27;;;9.80;99.90;;;;;;5074700;28;20794;-53
2021/12/17 12:18:53;;;;;;;8.07;4.30;;;9.80;99.90;;;;;;5055704;28;20598;-53
2021/12/17 12:21:31;;;;;;;9.17;5.07;;;9.70;99.90;;;;;;5062261;28;20281;-52
2021/12/17 12:24:13;;;;;;;9.43;3.97;;;9.70;99.90;;;;;;5078244;28;20241;-52
2021/12/17 12:26:45;;;;;;;6.40;3.20;;;9.70;99.90;;;;;;5080651;28;20293;-54
2021/12/17 12:29:17;;;;;;;9.00;3.73;;;9.70;99.90;;;;;;5076455;28;20322;-53
2021/12/17 12:31:48;;;;;;;8.00;3.97;;;9.50;99.90;;;;;;5079643;28;20234;-54
2021/12/17 12:34:18;;;;;;;5.90;3.60;;;9.70;99.90;;;;;;5079239;28;20745;-52
2021/12/17 12:37:08;;;;;;;7.00;3.27;;;9.80;99.90;;;;;;5070594;28;20211;-52
2021/12/17 12:39:37;;;;;;;7.97;3.77;;;9.80;99.90;;;;;;5074239;28;20230;-53
2021/12/17 12:42:23;;;;;;;6.77;3.73;;;9.70;99.90;;;;;;5073968;28;20206;-53
2021/12/17 12:44:50;;;;;;;5.53;3.50;;;9.80;99.90;;;;;;5078828;28;20319;-54
2021/12/17 12:47:26;;;;;;;7.03;3.80;;;9.60;99.90;;;;;;5075550;28;20240;-53
2021/12/17 12:50:06;;;;;;;5.17;3.10;;;9.50;99.90;;;;;;5073283;28;20273;-54
2021/12/17 12:52:40;;;;;;;7.13;3.80;;;9.60;99.90;;;;;;5073647;28;21061;-54
2021/12/17 12:55:28;;;;;;;7.57;4.40;;;9.50;99.90;;;;;;5072127;28;20287;-54
2021/12/17 12:57:58;;;;;;;7.13;3.80;;;9.30;99.90;;;;;;5064061;28;20236;-52
2021/12/17 13:00:31;;;;;;;10.60;4.80;;;9.30;99.90;;;;;;5053649;28;20238;-53
2021/12/17 13:03:09;;;;;;;8.07;4.13;;;9.20;99.90;;;;;;5052145;28;20207;-52
2021/12/17 13:05:37;;;;;;;8.70;3.57;;;9.40;99.90;;;;;;5054845;28;20253;-53
2021/12/17 13:08:07;;;;;;;6.73;4.30;;;9.30;99.90;;;;;;5039957;28;21298;-52
2021/12/17 13:10:46;;;;;;;11.33;4.60;;;9.30;99.90;;;;;;5050202;28;20198;-54
2021/12/17 13:13:29;;;;;;;8.50;4.03;;;9.30;99.90;;;;;;5044761;28;20196;-53
2021/12/17 13:21:31;;;;;;;5.00;3.50;;;9.20;99.90;;;;;;5046169;28;21444;-55
2021/12/17 13:24:25;;;;;;;6.13;3.30;;;9.10;99.90;;;;;;5048990;28;20310;-54
2021/12/17 13:27:01;;;;;;;6.17;3.60;;;9.20;99.90;;;;;;5037762;28;20225;-53
2021/12/17 13:29:34;;;;;;;5.80;3.33;;;9.10;99.90;;;;;;5049297;28;20214;-53
2021/12/17 13:32:28;;;;;;;5.53;3.37;;;9.10;99.90;;;;;;5044658;28;20321;-53
2021/12/17 13:34:58;;;;;;;4.70;3.20;;;9.10;99.90;;;;;;5042494;28;20301;-52
2021/12/17 13:37:30;;;;;;;3.50;2.73;;;9.10;99.90;;;;;;5023370;28;20256;-52
2021/12/17 13:40:00;;;;;;;5.07;3.10;;;9.10;99.90;;;;;;5048098;28;20221;-52
2021/12/17 13:42:30;;;;;;;4.63;3.03;;;9.20;99.90;;;;;;5043098;28;20199;-53
2021/12/17 13:44:58;;;;;;;3.77;2.97;;;9.20;99.90;;;;;;5044443;28;21026;-59
2021/12/17 13:47:42;;;;;;;4.30;3.43;;;9.30;99.90;;;;;;5030171;28;20576;-53
2021/12/17 13:50:30;;;;;;;3.43;2.93;;;9.20;99.90;;;;;;5039314;28;20294;-53
2021/12/17 13:52:59;;;;;;;3.63;2.73;;;9.10;99.90;;;;;;5028087;28;20304;-51
2021/12/17 13:55:34;;;;;;;3.33;2.33;;;8.90;99.90;;;;;;5035976;28;20222;-53
2021/12/17 13:58:06;;;;;;;2.73;2.17;;;8.90;99.90;;;;;;5047611;28;20345;-54
2021/12/17 14:00:39;;;;;;;2.87;2.47;;;9.00;99.90;;;;;;5068202;28;20556;-53
2021/12/17 14:03:13;;;;;;;2.90;2.30;;;9.20;99.90;;;;;;5050851;28;20226;-53
2021/12/17 14:05:46;;;;;;;2.97;2.30;;;9.20;99.90;;;;;;5077999;28;20564;-52
2021/12/17 14:08:20;;;;;;;1.90;1.70;;;9.20;99.90;;;;;;5074518;28;20239;-53
2021/12/17 14:10:49;;;;;;;3.13;2.10;;;9.20;99.90;;;;;;5089306;28;20691;-53
2021/12/17 14:13:26;;;;;;;2.63;2.00;;;9.20;99.90;;;;;;5079986;28;20206;-54
2021/12/17 14:16:02;;;;;;;2.67;2.10;;;9.30;99.90;;;;;;5073188;28;20228;-54
2021/12/17 14:18:30;;;;;;;3.10;2.13;;;9.30;99.90;;;;;;5078775;28;20263;-52
2021/12/17 14:21:03;;;;;;;2.83;2.40;;;9.40;99.90;;;;;;5074977;28;20206;-53
2021/12/17 14:23:32;;;;;;;2.67;2.30;;;9.40;99.90;;;;;;5080005;28;20239;-54
2021/12/17 14:26:06;;;;;;;2.87;2.47;;;9.20;99.90;;;;;;5077396;28;20202;-53
2021/12/17 14:28:39;;;;;;;2.87;2.40;;;9.20;99.90;;;;;;5077265;28;20209;-53
2021/12/17 14:31:09;;;;;;;3.87;3.07;;;9.40;99.90;;;;;;5077017;28;20206;-54
2021/12/17 14:33:40;;;;;;;5.43;3.00;;;9.40;99.90;;;;;;5079152;28;20246;-53
2021/12/17 14:36:14;;;;;;;3.80;2.80;;;9.30;99.90;;;;;;5075808;28;20218;-54
2021/12/17 14:38:48;;;;;;;3.33;2.60;;;9.40;99.90;;;;;;5077982;28;20252;-54
2021/12/17 14:41:33;;;;;;;3.50;2.77;;;9.40;99.90;;;;;;5080557;28;20626;-54
2021/12/17 14:44:10;;;;;;;4.37;2.80;;;9.40;99.90;;;;;;5083305;28;20198;-54
2021/12/17 14:46:54;;;;;;;5.33;3.50;;;9.40;99.90;;;;;;5078775;28;20703;-52
2021/12/17 15:00:22;;;;;;;5.97;3.70;;;9.50;99.90;;;;;;5077754;28;20359;-54
2021/12/17 15:05:10;;;;;;;3.93;3.50;;;9.50;99.90;;;;;;5079905;28;20290;-52
2021/12/17 15:07:37;;;;;;;4.40;3.90;;;9.60;99.90;;;;;;5079623;28;20770;-52
2021/12/17 15:10:07;;;;;;;5.03;3.83;;;9.60;99.90;;;;;;5086636;28;20236;-53
2021/12/17 15:15:07;;;;;;;3.70;3.00;;;9.30;99.90;;;;;;5079369;28;20602;-52
2021/12/17 15:17:34;;;;;;;4.90;4.00;;;9.30;99.90;;;;;;5076253;28;20263;-51
2021/12/17 15:20:19;;;;;;;4.23;3.57;;;9.50;99.90;;;;;;5082171;28;20320;-54
2021/12/17 15:22:46;;;;;;;4.10;3.20;;;9.40;99.90;;;;;;5081988;28;20232;-54
2021/12/17 15:25:14;;;;;;;5.23;3.80;;;9.50;99.90;;;;;;5076535;28;20207;-54
2021/12/17 15:27:42;;;;;;;4.97;3.40;;;9.50;99.90;;;;;;5077734;28;20510;-52
2021/12/17 15:30:17;;;;;;;3.67;3.27;;;9.50;99.90;;;;;;5081044;28;20282;-52
2021/12/17 15:32:44;;;;;;;5.37;3.90;;;9.60;99.90;;;;;;5078241;28;20203;-52
2021/12/17 15:35:12;;;;;;;4.67;4.03;;;9.60;99.90;;;;;;5076335;28;20732;-52
2021/12/17 15:37:40;;;;;;;4.20;3.77;;;9.50;99.90;;;;;;5080351;28;20198;-55
2021/12/17 15:40:08;;;;;;;3.90;3.30;;;9.50;99.90;;;;;;5077157;28;20255;-53
2021/12/17 15:42:36;;;;;;;6.93;3.33;;;9.60;99.90;;;;;;5078374;28;20869;-51
2021/12/17 15:45:04;;;;;;;7.37;4.30;;;9.70;99.90;;;;;;5080101;28;20212;-53
2021/12/17 15:47:31;;;;;;;6.03;3.67;;;9.70;99.90;;;;;;5078356;28;20207;-53
2021/12/17 15:49:58;;;;;;;3.77;3.17;;;9.70;99.90;;;;;;5075433;28;20219;-53
2021/12/17 15:52:29;;;;;;;4.10;3.50;;;9.60;99.90;;;;;;5070266;28;20346;-53
2021/12/17 15:54:55;;;;;;;4.40;3.60;;;9.60;99.90;;;;;;5077051;28;20207;-53
2021/12/17 15:57:23;;;;;;;4.10;3.70;;;9.60;99.90;;;;;;5068762;28;20648;-53
2021/12/17 15:59:52;;;;;;;4.93;3.83;;;9.70;99.90;;;;;;5064016;28;20234;-53
2021/12/17 16:02:19;;;;;;;5.03;3.73;;;9.70;99.90;;;;;;5061033;28;20237;-53
2021/12/17 16:04:47;;;;;;;5.10;4.10;;;9.70;99.90;;;;;;5061988;28;20242;-53
2021/12/17 16:07:15;;;;;;;4.43;3.60;;;9.80;99.90;;;;;;5065877;28;20221;-53
2021/12/17 16:23:12;;;;;;;5.37;4.13;;;9.80;99.90;;;;;;5071820;28;20691;-52
2021/12/17 16:25:39;;;;;;;7.03;3.60;;;9.80;99.90;;;;;;5074910;28;20835;-53
2021/12/17 16:28:06;;;;;;;4.47;3.80;;;9.90;99.90;;;;;;5068579;28;20305;-54
2021/12/17 16:30:40;;;;;;;8.47;4.30;;;9.90;99.90;;;;;;5073654;28;20293;-52